sensor_id;sensor_type;location;lat;lon;timestamp;P1;durP1;ratioP1;P2;durP2;ratioP2
23617;SDS011;18207;32.078;34.818;2022-12-11T00:00:01;7.28;;;6.57;;
23617;SDS011;18207;32.078;34.818;2022-12-11T00:02:34;7.05;;;6.40;;
23617;SDS011;18207;32.078;34.818;2022-12-11T00:05:05;6.88;;;6.28;;
23617;SDS011;18207;32.078;34.818;2022-12-11T00:07:38;6.88;;;6.13;;
23617;SDS011;18207;32.078;34.818;2022-12-11T00:10:11;7.35;;;6.63;;
23617;SDS011;18207;32.078;34.818;2022-12-11T00:12:41;6.72;;;6.03;;
23617;SDS011;18207;32.078;34.818;2022-12-11T00:15:13;7.15;;;6.43;;
23617;SDS011;18207;32.078;34.818;2022-12-11T00:17:44;6.80;;;6.20;;
23617;SDS011;18207;32.078;34.818;2022-12-11T00:20:14;6.95;;;6.35;;
23617;SDS011;18207;32.078;34.818;2022-12-11T00:22:46;7.70;;;6.78;;
23617;SDS011;18207;32.078;34.818;2022-12-11T00:25:19;7.72;;;6.50;;
23617;SDS011;18207;32.078;34.818;2022-12-11T00:27:49;7.60;;;6.82;;
23617;SDS011;18207;32.078;34.818;2022-12-11T00:30:20;7.28;;;6.53;;
23617;SDS011;18207;32.078;34.818;2022-12-11T00:32:51;7.25;;;6.55;;
23617;SDS011;18207;32.078;34.818;2022-12-11T00:35:22;6.80;;;6.18;;
23617;SDS011;18207;32.078;34.818;2022-12-11T00:37:53;7.18;;;6.47;;
23617;SDS011;18207;32.078;34.818;2022-12-11T00:40:27;6.68;;;6.07;;
23617;SDS011;18207;32.078;34.818;2022-12-11T00:42:58;6.88;;;6.28;;
23617;SDS011;18207;32.078;34.818;2022-12-11T00:45:28;7.35;;;6.60;;
23617;SDS011;18207;32.078;34.818;2022-12-11T00:47:59;6.80;;;6.20;;
23617;SDS011;18207;32.078;34.818;2022-12-11T00:50:29;6.75;;;6.10;;
23617;SDS011;18207;32.078;34.818;2022-12-11T00:53:00;6.70;;;6.10;;
23617;SDS011;18207;32.078;34.818;2022-12-11T00:55:37;6.53;;;5.93;;
23617;SDS011;18207;32.078;34.818;2022-12-11T00:58:09;7.07;;;6.38;;
23617;SDS011;18207;32.078;34.818;2022-12-11T01:00:40;7.40;;;6.45;;
23617;SDS011;18207;32.078;34.818;2022-12-11T01:03:12;7.43;;;6.10;;
23617;SDS011;18207;32.078;34.818;2022-12-11T01:05:51;6.75;;;6.13;;
23617;SDS011;18207;32.078;34.818;2022-12-11T01:08:22;6.80;;;6.13;;
23617;SDS011;18207;32.078;34.818;2022-12-11T01:11:01;6.78;;;5.93;;
23617;SDS011;18207;32.078;34.818;2022-12-11T01:13:32;6.90;;;6.20;;
23617;SDS011;18207;32.078;34.818;2022-12-11T01:16:07;6.85;;;6.25;;
23617;SDS011;18207;32.078;34.818;2022-12-11T01:18:39;7.32;;;6.50;;
23617;SDS011;18207;32.078;34.818;2022-12-11T01:21:11;8.10;;;6.53;;
23617;SDS011;18207;32.078;34.818;2022-12-11T01:23:43;7.30;;;6.60;;
23617;SDS011;18207;32.078;34.818;2022-12-11T01:26:16;7.45;;;6.75;;
23617;SDS011;18207;32.078;34.818;2022-12-11T01:28:47;6.57;;;5.95;;
23617;SDS011;18207;32.078;34.818;2022-12-11T01:31:21;6.65;;;6.05;;
23617;SDS011;18207;32.078;34.818;2022-12-11T01:33:52;6.72;;;6.13;;
23617;SDS011;18207;32.078;34.818;2022-12-11T01:36:23;6.85;;;6.15;;
23617;SDS011;18207;32.078;34.818;2022-12-11T01:38:54;7.10;;;6.40;;
23617;SDS011;18207;32.078;34.818;2022-12-11T01:41:28;6.40;;;5.80;;
23617;SDS011;18207;32.078;34.818;2022-12-11T01:44:00;6.80;;;6.05;;
23617;SDS011;18207;32.078;34.818;2022-12-11T01:46:34;6.68;;;6.07;;
23617;SDS011;18207;32.078;34.818;2022-12-11T01:49:18;6.63;;;5.93;;
23617;SDS011;18207;32.078;34.818;2022-12-11T01:51:52;6.72;;;6.13;;
23617;SDS011;18207;32.078;34.818;2022-12-11T01:54:27;6.68;;;6.03;;
23617;SDS011;18207;32.078;34.818;2022-12-11T01:57:03;6.97;;;6.28;;
23617;SDS011;18207;32.078;34.818;2022-12-11T01:59:40;6.57;;;5.93;;
23617;SDS011;18207;32.078;34.818;2022-12-11T02:02:16;6.55;;;5.95;;
23617;SDS011;18207;32.078;34.818;2022-12-11T02:04:53;7.13;;;6.18;;
23617;SDS011;18207;32.078;34.818;2022-12-11T02:07:23;6.55;;;5.95;;
23617;SDS011;18207;32.078;34.818;2022-12-11T02:09:53;6.47;;;5.85;;
23617;SDS011;18207;32.078;34.818;2022-12-11T02:12:29;6.75;;;6.10;;
23617;SDS011;18207;32.078;34.818;2022-12-11T02:15:11;6.40;;;5.82;;
23617;SDS011;18207;32.078;34.818;2022-12-11T02:17:58;6.32;;;5.72;;
23617;SDS011;18207;32.078;34.818;2022-12-11T02:20:40;6.35;;;5.75;;
23617;SDS011;18207;32.078;34.818;2022-12-11T02:26:53;5.78;;;5.25;;
23617;SDS011;18207;32.078;34.818;2022-12-11T02:29:44;6.28;;;5.68;;
23617;SDS011;18207;32.078;34.818;2022-12-11T02:32:22;6.32;;;5.72;;
23617;SDS011;18207;32.078;34.818;2022-12-11T02:35:01;6.28;;;5.68;;
23617;SDS011;18207;32.078;34.818;2022-12-11T02:37:42;6.07;;;5.47;;
23617;SDS011;18207;32.078;34.818;2022-12-11T02:40:21;6.28;;;5.68;;
23617;SDS011;18207;32.078;34.818;2022-12-11T02:42:59;8.45;;;5.70;;
23617;SDS011;18207;32.078;34.818;2022-12-11T02:45:36;6.10;;;5.50;;
23617;SDS011;18207;32.078;34.818;2022-12-11T02:48:10;6.15;;;5.55;;
23617;SDS011;18207;32.078;34.818;2022-12-11T02:50:44;6.68;;;5.88;;
23617;SDS011;18207;32.078;34.818;2022-12-11T02:53:19;6.57;;;5.93;;
23617;SDS011;18207;32.078;34.818;2022-12-11T02:56:00;6.85;;;5.88;;
23617;SDS011;18207;32.078;34.818;2022-12-11T02:58:41;6.05;;;5.50;;
23617;SDS011;18207;32.078;34.818;2022-12-11T03:01:26;6.15;;;5.55;;
23617;SDS011;18207;32.078;34.818;2022-12-11T03:03:57;5.50;;;4.97;;
23617;SDS011;18207;32.078;34.818;2022-12-11T03:06:31;6.35;;;5.47;;
23617;SDS011;18207;32.078;34.818;2022-12-11T03:09:06;6.35;;;5.75;;
23617;SDS011;18207;32.078;34.818;2022-12-11T03:11:37;6.55;;;5.45;;
23617;SDS011;18207;32.078;34.818;2022-12-11T03:14:08;7.82;;;6.18;;
23617;SDS011;18207;32.078;34.818;2022-12-11T03:16:44;6.40;;;5.68;;
23617;SDS011;18207;32.078;34.818;2022-12-11T03:19:27;7.47;;;6.13;;
23617;SDS011;18207;32.078;34.818;2022-12-11T03:22:07;6.32;;;5.63;;
23617;SDS011;18207;32.078;34.818;2022-12-11T03:24:42;6.22;;;5.63;;
23617;SDS011;18207;32.078;34.818;2022-12-11T03:27:18;6.35;;;5.60;;
23617;SDS011;18207;32.078;34.818;2022-12-11T03:29:59;6.75;;;5.55;;
23617;SDS011;18207;32.078;34.818;2022-12-11T03:32:39;6.40;;;5.80;;
23617;SDS011;18207;32.078;34.818;2022-12-11T03:35:21;7.40;;;5.75;;
23617;SDS011;18207;32.078;34.818;2022-12-11T03:37:55;5.82;;;5.30;;
23617;SDS011;18207;32.078;34.818;2022-12-11T03:40:33;5.85;;;5.25;;
23617;SDS011;18207;32.078;34.818;2022-12-11T03:43:08;6.03;;;5.35;;
23617;SDS011;18207;32.078;34.818;2022-12-11T03:45:40;6.70;;;5.30;;
23617;SDS011;18207;32.078;34.818;2022-12-11T03:48:15;6.22;;;5.63;;
23617;SDS011;18207;32.078;34.818;2022-12-11T03:50:48;5.97;;;5.38;;
23617;SDS011;18207;32.078;34.818;2022-12-11T03:53:20;6.03;;;5.43;;
23617;SDS011;18207;32.078;34.818;2022-12-11T03:55:54;5.82;;;5.32;;
23617;SDS011;18207;32.078;34.818;2022-12-11T03:58:28;5.90;;;5.30;;
23617;SDS011;18207;32.078;34.818;2022-12-11T04:00:59;6.25;;;5.65;;
23617;SDS011;18207;32.078;34.818;2022-12-11T04:03:32;6.03;;;5.43;;
23617;SDS011;18207;32.078;34.818;2022-12-11T04:06:02;5.93;;;5.32;;
23617;SDS011;18207;32.078;34.818;2022-12-11T04:08:36;6.43;;;5.75;;
23617;SDS011;18207;32.078;34.818;2022-12-11T04:11:11;6.00;;;5.28;;
23617;SDS011;18207;32.078;34.818;2022-12-11T04:13:59;6.13;;;5.13;;
23617;SDS011;18207;32.078;34.818;2022-12-11T04:16:46;5.60;;;5.05;;
23617;SDS011;18207;32.078;34.818;2022-12-11T04:19:19;5.82;;;5.20;;
23617;SDS011;18207;32.078;34.818;2022-12-11T04:22:08;6.05;;;5.15;;
23617;SDS011;18207;32.078;34.818;2022-12-11T04:24:56;5.55;;;5.03;;
23617;SDS011;18207;32.078;34.818;2022-12-11T04:27:26;6.38;;;5.30;;
23617;SDS011;18207;32.078;34.818;2022-12-11T04:30:15;5.53;;;5.03;;
23617;SDS011;18207;32.078;34.818;2022-12-11T04:32:48;5.53;;;4.97;;
23617;SDS011;18207;32.078;34.818;2022-12-11T04:35:22;6.05;;;4.85;;
23617;SDS011;18207;32.078;34.818;2022-12-11T04:37:53;5.70;;;5.15;;
23617;SDS011;18207;32.078;34.818;2022-12-11T04:40:24;6.20;;;5.28;;
23617;SDS011;18207;32.078;34.818;2022-12-11T04:42:54;7.00;;;5.22;;
23617;SDS011;18207;32.078;34.818;2022-12-11T04:45:25;5.63;;;5.13;;
23617;SDS011;18207;32.078;34.818;2022-12-11T04:47:58;5.85;;;5.35;;
23617;SDS011;18207;32.078;34.818;2022-12-11T04:50:31;5.72;;;5.22;;
23617;SDS011;18207;32.078;34.818;2022-12-11T04:53:02;5.88;;;5.10;;
23617;SDS011;18207;32.078;34.818;2022-12-11T04:55:33;5.68;;;5.18;;
23617;SDS011;18207;32.078;34.818;2022-12-11T04:58:03;6.32;;;5.10;;
23617;SDS011;18207;32.078;34.818;2022-12-11T05:00:33;6.03;;;5.43;;
23617;SDS011;18207;32.078;34.818;2022-12-11T05:03:04;6.20;;;5.60;;
23617;SDS011;18207;32.078;34.818;2022-12-11T05:05:39;6.22;;;5.55;;
23617;SDS011;18207;32.078;34.818;2022-12-11T05:08:14;5.60;;;5.10;;
23617;SDS011;18207;32.078;34.818;2022-12-11T05:10:53;5.93;;;5.32;;
23617;SDS011;18207;32.078;34.818;2022-12-11T05:13:25;8.05;;;5.80;;
23617;SDS011;18207;32.078;34.818;2022-12-11T05:15:57;6.10;;;5.50;;
23617;SDS011;18207;32.078;34.818;2022-12-11T05:18:28;6.32;;;5.72;;
23617;SDS011;18207;32.078;34.818;2022-12-11T05:21:03;6.07;;;5.47;;
23617;SDS011;18207;32.078;34.818;2022-12-11T05:23:37;6.75;;;6.07;;
23617;SDS011;18207;32.078;34.818;2022-12-11T05:26:10;5.97;;;5.40;;
23617;SDS011;18207;32.078;34.818;2022-12-11T05:28:56;6.00;;;5.32;;
23617;SDS011;18207;32.078;34.818;2022-12-11T05:31:27;6.57;;;5.57;;
23617;SDS011;18207;32.078;34.818;2022-12-11T05:33:58;9.52;;;5.80;;
23617;SDS011;18207;32.078;34.818;2022-12-11T05:36:32;6.70;;;6.05;;
23617;SDS011;18207;32.078;34.818;2022-12-11T05:39:03;7.03;;;6.32;;
23617;SDS011;18207;32.078;34.818;2022-12-11T05:41:34;6.78;;;6.18;;
23617;SDS011;18207;32.078;34.818;2022-12-11T05:44:05;6.47;;;5.80;;
23617;SDS011;18207;32.078;34.818;2022-12-11T05:46:36;9.98;;;6.05;;
23617;SDS011;18207;32.078;34.818;2022-12-11T05:49:07;14.70;;;6.40;;
23617;SDS011;18207;32.078;34.818;2022-12-11T05:51:40;6.28;;;5.68;;
23617;SDS011;18207;32.078;34.818;2022-12-11T05:54:13;7.50;;;6.03;;
23617;SDS011;18207;32.078;34.818;2022-12-11T05:56:44;8.32;;;6.47;;
23617;SDS011;18207;32.078;34.818;2022-12-11T05:59:17;5.38;;;4.88;;
23617;SDS011;18207;32.078;34.818;2022-12-11T06:01:48;6.57;;;5.88;;
23617;SDS011;18207;32.078;34.818;2022-12-11T06:04:19;6.10;;;5.50;;
23617;SDS011;18207;32.078;34.818;2022-12-11T06:06:52;6.13;;;5.50;;
23617;SDS011;18207;32.078;34.818;2022-12-11T06:09:23;6.40;;;5.45;;
23617;SDS011;18207;32.078;34.818;2022-12-11T06:11:54;6.40;;;5.80;;
23617;SDS011;18207;32.078;34.818;2022-12-11T06:14:27;6.22;;;5.20;;
23617;SDS011;18207;32.078;34.818;2022-12-11T06:16:57;6.38;;;5.07;;
23617;SDS011;18207;32.078;34.818;2022-12-11T06:19:28;5.05;;;4.60;;
23617;SDS011;18207;32.078;34.818;2022-12-11T06:22:04;5.05;;;4.55;;
23617;SDS011;18207;32.078;34.818;2022-12-11T06:24:34;5.50;;;4.75;;
23617;SDS011;18207;32.078;34.818;2022-12-11T06:27:06;7.60;;;4.75;;
23617;SDS011;18207;32.078;34.818;2022-12-11T06:29:37;5.07;;;4.57;;
23617;SDS011;18207;32.078;34.818;2022-12-11T06:32:07;5.25;;;4.78;;
23617;SDS011;18207;32.078;34.818;2022-12-11T06:34:38;4.72;;;4.28;;
23617;SDS011;18207;32.078;34.818;2022-12-11T06:37:12;5.22;;;4.72;;
23617;SDS011;18207;32.078;34.818;2022-12-11T06:39:43;5.38;;;4.88;;
23617;SDS011;18207;32.078;34.818;2022-12-11T06:42:13;5.00;;;4.38;;
23617;SDS011;18207;32.078;34.818;2022-12-11T06:44:44;4.80;;;4.40;;
23617;SDS011;18207;32.078;34.818;2022-12-11T06:47:15;5.57;;;4.93;;
23617;SDS011;18207;32.078;34.818;2022-12-11T06:49:46;5.57;;;5.03;;
23617;SDS011;18207;32.078;34.818;2022-12-11T06:52:19;4.72;;;4.32;;
23617;SDS011;18207;32.078;34.818;2022-12-11T06:54:50;5.10;;;4.60;;
23617;SDS011;18207;32.078;34.818;2022-12-11T06:57:21;5.32;;;4.82;;
23617;SDS011;18207;32.078;34.818;2022-12-11T06:59:53;5.43;;;4.93;;
23617;SDS011;18207;32.078;34.818;2022-12-11T07:02:24;4.75;;;4.35;;
23617;SDS011;18207;32.078;34.818;2022-12-11T07:04:55;5.00;;;4.55;;
23617;SDS011;18207;32.078;34.818;2022-12-11T07:07:29;4.78;;;4.38;;
23617;SDS011;18207;32.078;34.818;2022-12-11T07:10:03;6.35;;;3.90;;
23617;SDS011;18207;32.078;34.818;2022-12-11T07:12:36;4.50;;;3.88;;
23617;SDS011;18207;32.078;34.818;2022-12-11T07:15:09;4.40;;;4.00;;
23617;SDS011;18207;32.078;34.818;2022-12-11T07:17:40;6.55;;;4.25;;
23617;SDS011;18207;32.078;34.818;2022-12-11T07:20:12;4.45;;;4.05;;
23617;SDS011;18207;32.078;34.818;2022-12-11T07:22:45;4.18;;;3.85;;
23617;SDS011;18207;32.078;34.818;2022-12-11T07:25:15;3.88;;;3.58;;
23617;SDS011;18207;32.078;34.818;2022-12-11T07:27:46;4.18;;;3.72;;
23617;SDS011;18207;32.078;34.818;2022-12-11T07:30:16;3.78;;;3.47;;
23617;SDS011;18207;32.078;34.818;2022-12-11T07:32:47;3.85;;;3.55;;
23617;SDS011;18207;32.078;34.818;2022-12-11T07:35:20;4.30;;;3.90;;
23617;SDS011;18207;32.078;34.818;2022-12-11T07:37:52;4.57;;;4.07;;
23617;SDS011;18207;32.078;34.818;2022-12-11T07:40:22;4.10;;;3.75;;
23617;SDS011;18207;32.078;34.818;2022-12-11T07:42:53;3.90;;;3.50;;
23617;SDS011;18207;32.078;34.818;2022-12-11T07:45:23;3.88;;;3.58;;
23617;SDS011;18207;32.078;34.818;2022-12-11T07:47:56;4.63;;;3.55;;
23617;SDS011;18207;32.078;34.818;2022-12-11T07:50:26;3.38;;;3.10;;
23617;SDS011;18207;32.078;34.818;2022-12-11T07:53:07;4.57;;;3.40;;
23617;SDS011;18207;32.078;34.818;2022-12-11T07:55:38;4.05;;;3.70;;
23617;SDS011;18207;32.078;34.818;2022-12-11T07:58:09;3.47;;;3.17;;
23617;SDS011;18207;32.078;34.818;2022-12-11T08:00:40;3.20;;;2.90;;
23617;SDS011;18207;32.078;34.818;2022-12-11T08:03:14;3.50;;;3.10;;
23617;SDS011;18207;32.078;34.818;2022-12-11T08:05:47;3.08;;;2.78;;
23617;SDS011;18207;32.078;34.818;2022-12-11T08:08:22;2.95;;;2.75;;
23617;SDS011;18207;32.078;34.818;2022-12-11T08:10:53;2.83;;;2.63;;
23617;SDS011;18207;32.078;34.818;2022-12-11T08:13:24;3.53;;;3.22;;
23617;SDS011;18207;32.078;34.818;2022-12-11T08:15:55;3.00;;;2.78;;
23617;SDS011;18207;32.078;34.818;2022-12-11T08:18:27;2.88;;;2.67;;
23617;SDS011;18207;32.078;34.818;2022-12-11T08:21:03;3.38;;;3.08;;
23617;SDS011;18207;32.078;34.818;2022-12-11T08:23:36;3.10;;;2.80;;
23617;SDS011;18207;32.078;34.818;2022-12-11T08:26:10;2.88;;;2.67;;
23617;SDS011;18207;32.078;34.818;2022-12-11T08:28:44;2.90;;;2.55;;
23617;SDS011;18207;32.078;34.818;2022-12-11T08:31:15;3.08;;;2.72;;
23617;SDS011;18207;32.078;34.818;2022-12-11T08:33:49;2.90;;;2.70;;
23617;SDS011;18207;32.078;34.818;2022-12-11T08:36:21;3.00;;;2.70;;
23617;SDS011;18207;32.078;34.818;2022-12-11T08:38:54;3.00;;;2.80;;
23617;SDS011;18207;32.078;34.818;2022-12-11T08:41:26;2.80;;;2.60;;
23617;SDS011;18207;32.078;34.818;2022-12-11T08:43:58;3.08;;;2.88;;
23617;SDS011;18207;32.078;34.818;2022-12-11T08:46:31;3.00;;;2.80;;
23617;SDS011;18207;32.078;34.818;2022-12-11T08:49:05;2.85;;;2.55;;
23617;SDS011;18207;32.078;34.818;2022-12-11T08:51:39;3.35;;;2.95;;
23617;SDS011;18207;32.078;34.818;2022-12-11T08:54:12;2.92;;;2.72;;
23617;SDS011;18207;32.078;34.818;2022-12-11T08:56:44;3.33;;;3.03;;
23617;SDS011;18207;32.078;34.818;2022-12-11T08:59:21;3.10;;;2.90;;
23617;SDS011;18207;32.078;34.818;2022-12-11T09:01:53;3.97;;;3.20;;
23617;SDS011;18207;32.078;34.818;2022-12-11T09:04:25;3.80;;;3.40;;
23617;SDS011;18207;32.078;34.818;2022-12-11T09:06:56;5.35;;;3.63;;
23617;SDS011;18207;32.078;34.818;2022-12-11T09:09:29;3.42;;;3.13;;
23617;SDS011;18207;32.078;34.818;2022-12-11T09:12:00;4.63;;;3.42;;
23617;SDS011;18207;32.078;34.818;2022-12-11T09:14:31;3.55;;;3.25;;
23617;SDS011;18207;32.078;34.818;2022-12-11T09:17:02;3.72;;;3.33;;
23617;SDS011;18207;32.078;34.818;2022-12-11T09:19:33;3.47;;;3.05;;
23617;SDS011;18207;32.078;34.818;2022-12-11T09:22:06;3.13;;;2.83;;
23617;SDS011;18207;32.078;34.818;2022-12-11T09:24:40;3.42;;;3.13;;
23617;SDS011;18207;32.078;34.818;2022-12-11T09:27:12;3.25;;;2.95;;
23617;SDS011;18207;32.078;34.818;2022-12-11T09:29:43;3.63;;;3.28;;
23617;SDS011;18207;32.078;34.818;2022-12-11T09:32:14;3.15;;;2.53;;
23617;SDS011;18207;32.078;34.818;2022-12-11T09:34:45;3.40;;;2.92;;
23617;SDS011;18207;32.078;34.818;2022-12-11T09:37:19;3.35;;;3.05;;
23617;SDS011;18207;32.078;34.818;2022-12-11T09:39:51;2.65;;;2.45;;
23617;SDS011;18207;32.078;34.818;2022-12-11T09:42:32;2.95;;;2.65;;
23617;SDS011;18207;32.078;34.818;2022-12-11T09:45:20;2.67;;;2.47;;
23617;SDS011;18207;32.078;34.818;2022-12-11T09:47:51;2.40;;;2.30;;
23617;SDS011;18207;32.078;34.818;2022-12-11T09:50:26;2.75;;;2.55;;
23617;SDS011;18207;32.078;34.818;2022-12-11T09:53:03;3.05;;;2.67;;
23617;SDS011;18207;32.078;34.818;2022-12-11T09:55:48;3.03;;;2.50;;
23617;SDS011;18207;32.078;34.818;2022-12-11T09:58:27;2.67;;;2.47;;
23617;SDS011;18207;32.078;34.818;2022-12-11T10:01:13;3.42;;;2.63;;
23617;SDS011;18207;32.078;34.818;2022-12-11T10:03:59;3.10;;;2.75;;
23617;SDS011;18207;32.078;34.818;2022-12-11T10:07:01;3.22;;;2.72;;
23617;SDS011;18207;32.078;34.818;2022-12-11T10:09:42;2.88;;;2.67;;
23617;SDS011;18207;32.078;34.818;2022-12-11T10:12:28;3.65;;;2.95;;
23617;SDS011;18207;32.078;34.818;2022-12-11T10:15:19;3.70;;;3.00;;
23617;SDS011;18207;32.078;34.818;2022-12-11T10:18:03;3.75;;;2.92;;
23617;SDS011;18207;32.078;34.818;2022-12-11T10:20:40;3.03;;;2.83;;
23617;SDS011;18207;32.078;34.818;2022-12-11T10:23:15;3.28;;;2.97;;
23617;SDS011;18207;32.078;34.818;2022-12-11T10:25:50;3.90;;;2.88;;
23617;SDS011;18207;32.078;34.818;2022-12-11T10:28:33;3.15;;;2.72;;
23617;SDS011;18207;32.078;34.818;2022-12-11T10:31:06;3.40;;;3.10;;
23617;SDS011;18207;32.078;34.818;2022-12-11T10:33:49;3.28;;;2.78;;
23617;SDS011;18207;32.078;34.818;2022-12-11T10:36:28;4.15;;;3.13;;
23617;SDS011;18207;32.078;34.818;2022-12-11T10:39:02;3.63;;;3.03;;
23617;SDS011;18207;32.078;34.818;2022-12-11T10:41:42;3.25;;;3.03;;
23617;SDS011;18207;32.078;34.818;2022-12-11T10:44:18;4.25;;;3.15;;
23617;SDS011;18207;32.078;34.818;2022-12-11T10:47:00;3.00;;;2.70;;
23617;SDS011;18207;32.078;34.818;2022-12-11T10:49:35;3.20;;;2.90;;
23617;SDS011;18207;32.078;34.818;2022-12-11T10:52:12;3.25;;;2.95;;
23617;SDS011;18207;32.078;34.818;2022-12-11T10:54:54;3.10;;;2.80;;
23617;SDS011;18207;32.078;34.818;2022-12-11T10:57:30;3.42;;;2.97;;
23617;SDS011;18207;32.078;34.818;2022-12-11T11:00:24;3.30;;;2.80;;
23617;SDS011;18207;32.078;34.818;2022-12-11T11:03:04;2.97;;;2.67;;
23617;SDS011;18207;32.078;34.818;2022-12-11T11:05:49;3.45;;;3.15;;
23617;SDS011;18207;32.078;34.818;2022-12-11T11:08:39;3.13;;;2.65;;
23617;SDS011;18207;32.078;34.818;2022-12-11T11:11:15;3.20;;;2.90;;
23617;SDS011;18207;32.078;34.818;2022-12-11T11:14:11;3.55;;;3.25;;
23617;SDS011;18207;32.078;34.818;2022-12-11T11:16:48;3.30;;;2.97;;
23617;SDS011;18207;32.078;34.818;2022-12-11T11:19:23;3.40;;;3.10;;
23617;SDS011;18207;32.078;34.818;2022-12-11T11:21:59;3.65;;;3.15;;
23617;SDS011;18207;32.078;34.818;2022-12-11T11:24:37;3.60;;;3.30;;
23617;SDS011;18207;32.078;34.818;2022-12-11T11:27:11;3.45;;;3.15;;
23617;SDS011;18207;32.078;34.818;2022-12-11T11:29:53;3.28;;;3.03;;
23617;SDS011;18207;32.078;34.818;2022-12-11T11:32:31;3.25;;;2.95;;
23617;SDS011;18207;32.078;34.818;2022-12-11T11:35:16;3.60;;;3.30;;
23617;SDS011;18207;32.078;34.818;2022-12-11T11:37:53;3.30;;;3.00;;
23617;SDS011;18207;32.078;34.818;2022-12-11T11:40:35;3.17;;;2.90;;
23617;SDS011;18207;32.078;34.818;2022-12-11T11:43:15;3.30;;;3.10;;
23617;SDS011;18207;32.078;34.818;2022-12-11T11:45:57;4.20;;;3.20;;
23617;SDS011;18207;32.078;34.818;2022-12-11T11:48:37;3.75;;;3.42;;
23617;SDS011;18207;32.078;34.818;2022-12-11T11:51:26;3.50;;;3.20;;
23617;SDS011;18207;32.078;34.818;2022-12-11T11:54:02;3.03;;;2.72;;
23617;SDS011;18207;32.078;34.818;2022-12-11T11:56:50;3.25;;;2.80;;
23617;SDS011;18207;32.078;34.818;2022-12-11T11:59:26;3.30;;;3.00;;
23617;SDS011;18207;32.078;34.818;2022-12-11T12:02:08;3.63;;;3.13;;
23617;SDS011;18207;32.078;34.818;2022-12-11T12:04:47;2.88;;;2.67;;
23617;SDS011;18207;32.078;34.818;2022-12-11T12:07:23;3.50;;;3.20;;
23617;SDS011;18207;32.078;34.818;2022-12-11T12:10:08;3.67;;;2.90;;
23617;SDS011;18207;32.078;34.818;2022-12-11T12:12:51;3.25;;;2.95;;
23617;SDS011;18207;32.078;34.818;2022-12-11T12:15:41;3.38;;;3.08;;
23617;SDS011;18207;32.078;34.818;2022-12-11T12:18:23;3.42;;;3.13;;
23617;SDS011;18207;32.078;34.818;2022-12-11T12:21:11;3.28;;;2.97;;
23617;SDS011;18207;32.078;34.818;2022-12-11T12:24:01;3.58;;;3.28;;
23617;SDS011;18207;32.078;34.818;2022-12-11T12:26:47;3.47;;;3.17;;
23617;SDS011;18207;32.078;34.818;2022-12-11T12:29:32;3.08;;;2.83;;
23617;SDS011;18207;32.078;34.818;2022-12-11T12:32:24;3.20;;;3.00;;
23617;SDS011;18207;32.078;34.818;2022-12-11T12:35:10;3.15;;;2.95;;
23617;SDS011;18207;32.078;34.818;2022-12-11T12:38:04;3.38;;;3.05;;
23617;SDS011;18207;32.078;34.818;2022-12-11T12:40:47;3.42;;;3.10;;
23617;SDS011;18207;32.078;34.818;2022-12-11T12:43:35;3.13;;;2.83;;
23617;SDS011;18207;32.078;34.818;2022-12-11T12:46:26;3.05;;;2.75;;
23617;SDS011;18207;32.078;34.818;2022-12-11T12:49:15;3.20;;;2.90;;
23617;SDS011;18207;32.078;34.818;2022-12-11T12:51:58;3.05;;;2.72;;
23617;SDS011;18207;32.078;34.818;2022-12-11T12:54:32;3.33;;;3.05;;
23617;SDS011;18207;32.078;34.818;2022-12-11T12:57:09;3.22;;;2.92;;
23617;SDS011;18207;32.078;34.818;2022-12-11T12:59:40;3.15;;;2.83;;
23617;SDS011;18207;32.078;34.818;2022-12-11T13:02:11;3.13;;;2.92;;
23617;SDS011;18207;32.078;34.818;2022-12-11T13:04:53;3.63;;;3.33;;
23617;SDS011;18207;32.078;34.818;2022-12-11T13:07:30;3.13;;;2.83;;
23617;SDS011;18207;32.078;34.818;2022-12-11T13:10:05;2.92;;;2.72;;
23617;SDS011;18207;32.078;34.818;2022-12-11T13:13:02;2.92;;;2.72;;
23617;SDS011;18207;32.078;34.818;2022-12-11T13:15:53;3.13;;;2.85;;
23617;SDS011;18207;32.078;34.818;2022-12-11T13:18:37;3.08;;;2.83;;
23617;SDS011;18207;32.078;34.818;2022-12-11T13:21:23;3.10;;;2.80;;
23617;SDS011;18207;32.078;34.818;2022-12-11T13:26:55;3.30;;;2.75;;
23617;SDS011;18207;32.078;34.818;2022-12-11T13:29:38;2.72;;;2.53;;
23617;SDS011;18207;32.078;34.818;2022-12-11T13:32:20;2.83;;;2.63;;
23617;SDS011;18207;32.078;34.818;2022-12-11T13:34:59;3.00;;;2.80;;
23617;SDS011;18207;32.078;34.818;2022-12-11T13:37:44;2.92;;;2.72;;
23617;SDS011;18207;32.078;34.818;2022-12-11T13:40:23;2.97;;;2.67;;
23617;SDS011;18207;32.078;34.818;2022-12-11T13:43:07;3.25;;;2.90;;
23617;SDS011;18207;32.078;34.818;2022-12-11T13:45:48;3.78;;;3.30;;
23617;SDS011;18207;32.078;34.818;2022-12-11T13:48:22;3.30;;;2.88;;
23617;SDS011;18207;32.078;34.818;2022-12-11T13:51:00;3.15;;;2.85;;
23617;SDS011;18207;32.078;34.818;2022-12-11T13:53:33;3.22;;;2.92;;
23617;SDS011;18207;32.078;34.818;2022-12-11T13:56:04;3.40;;;3.10;;
23617;SDS011;18207;32.078;34.818;2022-12-11T13:58:47;3.63;;;3.08;;
23617;SDS011;18207;32.078;34.818;2022-12-11T14:01:19;3.15;;;2.85;;
23617;SDS011;18207;32.078;34.818;2022-12-11T14:03:55;3.15;;;2.83;;
23617;SDS011;18207;32.078;34.818;2022-12-11T14:06:30;2.85;;;2.65;;
23617;SDS011;18207;32.078;34.818;2022-12-11T14:09:03;3.20;;;3.00;;
23617;SDS011;18207;32.078;34.818;2022-12-11T14:11:37;2.97;;;2.78;;
23617;SDS011;18207;32.078;34.818;2022-12-11T14:14:16;3.17;;;2.97;;
23617;SDS011;18207;32.078;34.818;2022-12-11T14:16:54;3.38;;;3.08;;
23617;SDS011;18207;32.078;34.818;2022-12-11T14:19:25;3.72;;;2.83;;
23617;SDS011;18207;32.078;34.818;2022-12-11T14:21:59;2.97;;;2.78;;
23617;SDS011;18207;32.078;34.818;2022-12-11T14:24:34;3.25;;;2.95;;
23617;SDS011;18207;32.078;34.818;2022-12-11T14:27:11;3.15;;;2.95;;
23617;SDS011;18207;32.078;34.818;2022-12-11T14:29:48;3.38;;;3.08;;
23617;SDS011;18207;32.078;34.818;2022-12-11T14:32:23;3.03;;;2.83;;
23617;SDS011;18207;32.078;34.818;2022-12-11T14:35:03;3.03;;;2.83;;
23617;SDS011;18207;32.078;34.818;2022-12-11T14:37:52;2.95;;;2.75;;
23617;SDS011;18207;32.078;34.818;2022-12-11T14:40:26;3.30;;;3.00;;
23617;SDS011;18207;32.078;34.818;2022-12-11T14:43:06;3.03;;;2.83;;
23617;SDS011;18207;32.078;34.818;2022-12-11T14:45:46;3.25;;;2.90;;
23617;SDS011;18207;32.078;34.818;2022-12-11T14:48:23;3.30;;;3.00;;
23617;SDS011;18207;32.078;34.818;2022-12-11T14:51:00;3.30;;;3.03;;
23617;SDS011;18207;32.078;34.818;2022-12-11T14:53:39;3.60;;;3.13;;
23617;SDS011;18207;32.078;34.818;2022-12-11T14:56:17;3.58;;;3.28;;
23617;SDS011;18207;32.078;34.818;2022-12-11T14:58:54;3.30;;;3.00;;
23617;SDS011;18207;32.078;34.818;2022-12-11T15:01:34;3.30;;;3.00;;
23617;SDS011;18207;32.078;34.818;2022-12-11T15:04:14;3.17;;;2.97;;
23617;SDS011;18207;32.078;34.818;2022-12-11T15:06:54;3.25;;;2.90;;
23617;SDS011;18207;32.078;34.818;2022-12-11T15:09:26;3.28;;;3.08;;
23617;SDS011;18207;32.078;34.818;2022-12-11T15:12:09;3.75;;;3.08;;
23617;SDS011;18207;32.078;34.818;2022-12-11T15:14:44;3.33;;;3.03;;
23617;SDS011;18207;32.078;34.818;2022-12-11T15:17:21;3.17;;;2.90;;
23617;SDS011;18207;32.078;34.818;2022-12-11T15:19:55;3.38;;;3.08;;
23617;SDS011;18207;32.078;34.818;2022-12-11T15:22:34;3.67;;;3.17;;
23617;SDS011;18207;32.078;34.818;2022-12-11T15:25:15;3.92;;;3.05;;
23617;SDS011;18207;32.078;34.818;2022-12-11T15:27:51;3.47;;;3.17;;
23617;SDS011;18207;32.078;34.818;2022-12-11T15:30:27;3.42;;;3.13;;